createdAt,value
2018-11-10T00:00:04.397Z,52.07
2018-11-10T00:04:13.571Z,55.47
2018-11-10T00:08:22.718Z,59.13
2018-11-10T00:12:32.546Z,54.63
2018-11-10T00:16:41.196Z,56.23
2018-11-10T00:20:54.794Z,52.17
2018-11-10T00:25:02.834Z,57.67
2018-11-10T00:29:21.197Z,51.13
2018-11-10T00:33:29.401Z,54.70
2018-11-10T08:53:42.275Z,60.63
2018-11-10T08:57:56.306Z,57.13
2018-11-10T09:02:08.958Z,56.30
2018-11-10T09:06:18.945Z,57.17
2018-11-10T09:10:41.187Z,58.60
2018-11-10T09:14:53.131Z,53.93
2018-11-10T09:19:01.861Z,57.33
2018-11-10T09:23:21.443Z,57.23
2018-11-10T09:49:57.258Z,59.07
2018-11-10T09:54:14.301Z,51.67
2018-11-10T09:59:02.020Z,49.83
2018-11-10T10:03:14.620Z,51.33
2018-11-10T10:07:44.622Z,53.33
2018-11-10T10:11:55.514Z,54.37
2018-11-10T10:16:55.079Z,47.90
2018-11-10T10:21:28.497Z,47.00
2018-11-10T10:44:13.718Z,39.03
2018-11-10T10:49:15.397Z,37.27
2018-11-10T10:53:57.536Z,37.07
2018-11-10T10:58:51.189Z,40.50
2018-11-10T11:08:37.838Z,37.07
2018-11-10T11:12:54.897Z,34.90
2018-11-10T11:17:04.013Z,36.30
2018-11-10T11:21:13.214Z,37.53
2018-11-10T11:25:28.013Z,37.87
2018-11-10T11:29:36.559Z,37.03
2018-11-10T11:34:41.244Z,34.17
2018-11-10T11:40:05.160Z,34.10
2018-11-10T11:50:18.526Z,29.77
2018-11-10T11:54:32.787Z,34.00
2018-11-10T11:58:40.360Z,32.57
2018-11-10T12:02:51.707Z,32.47
2018-11-10T12:07:02.522Z,30.10
2018-11-10T12:21:14.712Z,29.73
2018-11-10T13:46:52.572Z,17.93
2018-11-10T13:51:03.134Z,20.47
2018-11-10T13:55:10.220Z,19.33
2018-11-10T13:59:17.465Z,20.77
2018-11-10T14:03:24.622Z,16.50
2018-11-10T14:07:32.006Z,19.63
2018-11-10T14:11:39.270Z,20.83
2018-11-10T14:15:46.374Z,19.10
2018-11-10T14:19:53.758Z,20.63
2018-11-10T14:24:01.139Z,16.93
2018-11-10T14:28:09.640Z,15.93
2018-11-10T14:32:17.133Z,15.20
2018-11-10T14:36:25.752Z,15.27
2018-11-10T14:40:33.055Z,17.07
2018-11-10T14:44:40.369Z,17.53
2018-11-10T14:48:47.492Z,14.73
2018-11-10T14:52:54.942Z,17.00
2018-11-10T14:57:02.216Z,15.97
2018-11-10T15:01:09.678Z,15.07
2018-11-10T15:05:17.074Z,17.33
2018-11-10T15:09:24.220Z,17.40
2018-11-10T15:13:42.448Z,17.17
2018-11-10T15:17:55.166Z,17.73
2018-11-10T15:22:05.279Z,13.77
2018-11-10T15:26:14.307Z,18.57
2018-11-10T15:30:23.201Z,16.43
2018-11-10T15:34:30.514Z,18.27
2018-11-10T15:38:37.704Z,17.00
2018-11-10T15:42:44.907Z,16.43
2018-11-10T15:46:52.122Z,16.20
2018-11-10T15:50:59.623Z,18.07
2018-11-10T15:55:07.863Z,19.33
2018-11-10T15:59:15.129Z,14.27
2018-11-10T16:03:22.389Z,15.83
2018-11-10T16:07:29.430Z,15.63
2018-11-10T16:11:36.620Z,15.57
2018-11-10T16:15:43.717Z,13.80
2018-11-10T16:19:51.003Z,14.67
2018-11-10T16:23:58.362Z,14.97
2018-11-10T16:28:06.086Z,15.27
2018-11-10T16:32:13.413Z,17.87
2018-11-10T16:36:20.616Z,15.23
2018-11-10T16:40:27.770Z,14.20
2018-11-10T16:44:35.124Z,15.63
2018-11-10T16:48:42.573Z,13.83
2018-11-10T16:52:49.801Z,13.43
2018-11-10T16:56:56.970Z,13.23
2018-11-10T17:01:04.529Z,12.80
2018-11-10T17:05:12.204Z,15.37
2018-11-10T17:09:19.439Z,14.50
2018-11-10T17:13:26.933Z,13.63
2018-11-10T17:17:34.295Z,14.33
2018-11-10T17:21:41.467Z,13.73
2018-11-10T17:25:48.698Z,16.70
2018-11-10T17:29:55.950Z,13.30
2018-11-10T17:34:03.246Z,14.37
2018-11-10T17:38:10.797Z,13.33
2018-11-10T17:42:18.310Z,13.37
2018-11-10T17:46:25.420Z,14.47
2018-11-10T17:50:32.696Z,14.23
2018-11-10T17:54:40.000Z,16.40
2018-11-10T17:58:47.341Z,12.20
2018-11-10T18:02:54.638Z,14.77
2018-11-10T18:07:01.798Z,13.73
2018-11-10T18:11:09.134Z,14.03
2018-11-10T18:15:16.933Z,13.93
2018-11-10T18:19:24.244Z,15.37
2018-11-10T18:23:31.554Z,15.30
2018-11-10T18:27:39.489Z,14.60
2018-11-10T18:31:46.712Z,15.70
2018-11-10T18:35:54.141Z,14.20
2018-11-10T18:40:01.569Z,13.40
2018-11-10T18:44:10.372Z,12.23
2018-11-10T18:48:17.620Z,10.97
2018-11-10T18:52:25.092Z,11.63
2018-11-10T18:56:35.363Z,11.60
2018-11-10T19:00:42.642Z,12.50
2018-11-10T19:04:49.952Z,13.53
2018-11-10T19:08:57.226Z,14.13
2018-11-10T19:13:04.443Z,14.60
2018-11-10T19:17:11.553Z,11.80
2018-11-10T19:21:18.887Z,14.80
2018-11-10T19:25:26.174Z,16.73
2018-11-10T19:29:36.450Z,14.73
2018-11-10T19:33:44.422Z,14.57
2018-11-10T19:37:52.262Z,15.17
2018-11-10T19:41:59.793Z,14.33
2018-11-10T19:46:07.877Z,16.83
2018-11-10T19:50:15.682Z,13.53
2018-11-10T19:54:23.005Z,11.80
2018-11-10T19:58:34.528Z,11.77
2018-11-10T20:02:39.663Z,13.53
2018-11-10T20:06:47.203Z,12.33
2018-11-10T20:10:54.620Z,12.13
2018-11-10T20:15:05.279Z,12.27
2018-11-10T20:19:13.999Z,11.43
2018-11-10T20:23:21.471Z,11.03
2018-11-10T20:27:28.951Z,9.03
2018-11-10T20:31:36.214Z,10.73
2018-11-10T20:35:43.654Z,8.80
2018-11-10T20:39:50.929Z,9.17
2018-11-10T20:43:58.202Z,9.37
2018-11-10T20:48:05.439Z,8.60
2018-11-10T20:52:12.800Z,6.83
2018-11-10T20:56:19.923Z,6.27
2018-11-10T21:00:27.084Z,8.70
2018-11-10T21:04:34.386Z,5.53
2018-11-10T21:08:41.881Z,5.00
2018-11-10T21:12:50.344Z,5.57
2018-11-10T21:16:57.546Z,4.27
2018-11-10T21:21:04.782Z,6.10
2018-11-10T21:25:14.358Z,5.13
2018-11-10T21:29:21.912Z,4.37
2018-11-10T21:33:29.145Z,5.33
2018-11-10T21:37:36.915Z,5.70
2018-11-10T21:41:44.199Z,6.40
2018-11-10T21:45:51.500Z,4.00
2018-11-10T21:49:58.740Z,4.17
2018-11-10T21:54:06.021Z,4.57
2018-11-10T21:58:13.327Z,5.30
2018-11-10T22:02:20.615Z,5.27
2018-11-10T22:06:27.671Z,5.63
2018-11-10T22:10:35.024Z,6.93
2018-11-10T22:14:42.213Z,8.33
2018-11-10T22:18:49.473Z,10.37
2018-11-10T22:22:56.819Z,11.40
2018-11-10T22:27:04.075Z,11.13
2018-11-10T22:31:11.377Z,13.20
2018-11-10T22:35:18.844Z,15.83
2018-11-10T22:39:26.134Z,14.23
2018-11-10T22:43:33.317Z,13.30
2018-11-10T22:47:41.351Z,15.90
2018-11-10T22:51:48.335Z,14.27
2018-11-10T22:55:55.648Z,13.80
2018-11-10T23:00:03.009Z,14.90
2018-11-10T23:04:11.863Z,15.20
2018-11-10T23:08:17.514Z,14.90
2018-11-10T23:12:24.830Z,15.33
2018-11-10T23:16:32.024Z,13.83
2018-11-10T23:20:39.293Z,17.57
2018-11-10T23:24:46.607Z,15.70
2018-11-10T23:28:53.780Z,16.10
2018-11-10T23:33:00.996Z,16.60
2018-11-10T23:37:08.627Z,19.93
2018-11-10T23:41:15.802Z,13.77
2018-11-10T23:45:22.994Z,8.80
2018-11-10T23:49:30.368Z,10.10
2018-11-10T23:53:37.591Z,8.57
2018-11-10T23:57:44.851Z,10.57
